createdAt,value
2023-03-29T00:00:09.702Z,101383.97
2023-03-29T00:02:39.718Z,101385.03
2023-03-29T00:05:12.308Z,101380.38
2023-03-29T00:07:40.422Z,101381.56
2023-03-29T00:10:10.647Z,101370.53
2023-03-29T00:12:39.368Z,101364.34
2023-03-29T00:15:09.445Z,101368.03
2023-03-29T00:17:37.347Z,101370.06
2023-03-29T00:20:08.478Z,101363.75
2023-03-29T00:22:39.821Z,101366.38
2023-03-29T00:25:08.265Z,101353.09
2023-03-29T00:27:36.389Z,101347.75
2023-03-29T00:30:05.566Z,101356.00
2023-03-29T00:32:34.185Z,101350.56
2023-03-29T00:35:02.480Z,101348.78
2023-03-29T00:37:30.831Z,101340.63
2023-03-29T00:40:00.210Z,101342.47
2023-03-29T00:42:28.133Z,101341.69
2023-03-29T00:45:03.834Z,101344.31
2023-03-29T00:47:36.156Z,101348.00
2023-03-29T00:50:09.732Z,101331.91
2023-03-29T00:52:39.570Z,101342.69
2023-03-29T00:55:13.238Z,101338.13
2023-03-29T00:57:46.531Z,101339.19
2023-03-29T01:00:18.176Z,101334.63
2023-03-29T01:02:51.007Z,101324.72
2023-03-29T01:05:24.295Z,101321.19
2023-03-29T01:07:58.431Z,101327.50
2023-03-29T01:10:34.308Z,101317.50
2023-03-29T01:13:07.730Z,101322.16
2023-03-29T01:15:36.103Z,101319.44
2023-03-29T01:18:04.169Z,101320.41
2023-03-29T01:20:44.773Z,101324.72
2023-03-29T01:23:27.999Z,101316.56
2023-03-29T01:26:00.376Z,101313.72
2023-03-29T01:28:32.954Z,101312.22
2023-03-29T01:31:07.434Z,101306.78
2023-03-29T01:33:41.674Z,101302.13
2023-03-29T01:36:15.223Z,101295.72
2023-03-29T01:38:47.608Z,101299.41
2023-03-29T01:41:15.736Z,101283.31
2023-03-29T01:43:49.815Z,101274.94
2023-03-29T01:46:25.950Z,101270.47
2023-03-29T01:48:59.614Z,101259.59
2023-03-29T01:51:32.301Z,101269.59
2023-03-29T01:54:04.133Z,101259.81
2023-03-29T01:56:36.813Z,101265.03
2023-03-29T01:59:08.336Z,101266.69
2023-03-29T02:01:42.432Z,101272.53
2023-03-29T02:04:13.079Z,101268.53
2023-03-29T02:06:42.933Z,101256.31
2023-03-29T02:09:11.628Z,101257.84
2023-03-29T02:11:42.070Z,101259.59
2023-03-29T02:14:11.411Z,101253.19
2023-03-29T02:16:40.328Z,101247.75
2023-03-29T02:19:09.727Z,101246.75
2023-03-29T02:21:48.125Z,101242.16
2023-03-29T02:24:20.937Z,101243.03
2023-03-29T02:26:49.671Z,101232.03
2023-03-29T02:29:18.957Z,101236.84
2023-03-29T02:31:53.072Z,101241.03
2023-03-29T02:34:26.674Z,101232.78
2023-03-29T02:37:00.091Z,101229.97
2023-03-29T02:39:31.438Z,101226.28
2023-03-29T02:42:00.615Z,101235.41
2023-03-29T02:44:33.102Z,101240.66
2023-03-29T02:47:06.791Z,101246.09
2023-03-29T02:49:35.530Z,101246.97
2023-03-29T02:52:08.582Z,101247.63
2023-03-29T02:54:43.486Z,101241.22
2023-03-29T02:57:12.324Z,101237.53
2023-03-29T02:59:43.940Z,101239.19
2023-03-29T03:02:13.762Z,101230.16
2023-03-29T03:04:43.234Z,101232.66
2023-03-29T03:07:11.934Z,101226.22
2023-03-29T03:09:39.845Z,101226.22
2023-03-29T03:12:08.452Z,101218.75
2023-03-29T03:14:36.340Z,101221.38
2023-03-29T03:17:05.575Z,101224.84
2023-03-29T03:19:34.485Z,101220.28
2023-03-29T03:22:02.374Z,101215.59
2023-03-29T03:24:30.211Z,101212.78
2023-03-29T03:26:58.084Z,101216.28
2023-03-29T03:29:26.166Z,101203.44
2023-03-29T03:32:14.028Z,101207.03
2023-03-29T03:35:20.119Z,101207.03
2023-03-29T03:37:48.263Z,101200.50
2023-03-29T03:40:18.235Z,101212.28
2023-03-29T03:42:46.801Z,101203.03
2023-03-29T03:45:15.378Z,101202.91
2023-03-29T03:47:44.600Z,101196.38
2023-03-29T03:50:38.533Z,101202.69
2023-03-29T03:53:07.038Z,101202.50
2023-03-29T03:55:57.004Z,101202.50
2023-03-29T03:58:29.161Z,101201.53
2023-03-29T04:00:58.061Z,101201.41
2023-03-29T04:03:43.573Z,101206.75
2023-03-29T04:06:15.300Z,101195.84
2023-03-29T04:09:01.626Z,101197.59
2023-03-29T04:11:36.786Z,101198.38
2023-03-29T04:14:05.878Z,101201.97
2023-03-29T04:17:00.005Z,101198.38
2023-03-29T04:19:49.459Z,101196.44
2023-03-29T04:22:17.322Z,101200.03
2023-03-29T04:24:45.122Z,101196.31
2023-03-29T04:27:33.050Z,101200.91
2023-03-29T04:30:04.801Z,101192.75
2023-03-29T04:32:52.642Z,101192.84
2023-03-29T04:35:22.203Z,101190.84
2023-03-29T04:37:51.119Z,101190.13
2023-03-29T04:40:19.831Z,101183.78
2023-03-29T04:43:03.471Z,101182.03
2023-03-29T04:45:32.273Z,101182.16
2023-03-29T04:48:20.691Z,101173.19
2023-03-29T04:50:50.034Z,101173.19
2023-03-29T04:53:19.574Z,101169.75
2023-03-29T04:55:47.965Z,101179.75
2023-03-29T04:58:26.127Z,101164.50
2023-03-29T05:00:57.556Z,101166.34
2023-03-29T05:03:38.733Z,101167.50
2023-03-29T05:06:18.573Z,101167.41
2023-03-29T05:08:46.433Z,101170.22
2023-03-29T05:11:27.632Z,101167.66
2023-03-29T05:13:58.444Z,101165.03
2023-03-29T05:16:30.140Z,101159.00
2023-03-29T05:18:59.149Z,101156.19
2023-03-29T05:21:29.298Z,101154.34
2023-03-29T05:23:59.792Z,101151.84
2023-03-29T05:26:51.770Z,101149.22
2023-03-29T05:29:20.075Z,101150.97
2023-03-29T05:31:54.122Z,101154.56
2023-03-29T05:34:22.458Z,101145.53
2023-03-29T05:36:56.819Z,101155.53
2023-03-29T05:39:25.923Z,101145.63
2023-03-29T05:41:54.892Z,101144.66
2023-03-29T05:44:25.821Z,101141.06
2023-03-29T05:46:59.819Z,101136.47
2023-03-29T05:49:27.685Z,101131.13
2023-03-29T05:52:10.960Z,101143.78
2023-03-29T05:54:39.557Z,101134.72
2023-03-29T05:57:08.361Z,101142.81
2023-03-29T05:59:37.011Z,101141.94
2023-03-29T06:02:05.686Z,101142.81
2023-03-29T06:04:36.643Z,101136.47
2023-03-29T06:07:26.194Z,101137.34
2023-03-29T06:10:24.830Z,101148.34
2023-03-29T06:13:00.226Z,101137.47
2023-03-29T06:15:28.624Z,101143.69
2023-03-29T06:18:02.323Z,101144.56
2023-03-29T06:20:30.707Z,101136.25
2023-03-29T06:23:05.669Z,101141.59
2023-03-29T06:25:35.182Z,101134.31
2023-03-29T06:28:03.984Z,101139.66
2023-03-29T06:30:32.177Z,101152.28
2023-03-29T06:33:01.079Z,101147.72
2023-03-29T06:35:55.285Z,101149.47
2023-03-29T06:38:28.794Z,101150.22
2023-03-29T06:41:06.241Z,101149.13
2023-03-29T06:43:57.769Z,101144.56
2023-03-29T06:46:33.030Z,101156.31
2023-03-29T06:49:06.337Z,101158.06
2023-03-29T06:51:48.674Z,101158.94
2023-03-29T06:54:18.702Z,101162.41
2023-03-29T06:56:59.662Z,101161.44
2023-03-29T06:59:29.597Z,101152.19
2023-03-29T07:01:59.805Z,101160.25
2023-03-29T07:04:48.796Z,101158.41
2023-03-29T07:07:33.392Z,101164.63
2023-03-29T07:10:16.675Z,101170.81
2023-03-29T07:12:46.269Z,101168.88
2023-03-29T07:15:16.649Z,101163.31
2023-03-29T07:18:19.902Z,101167.03
2023-03-29T07:20:48.629Z,101173.16
2023-03-29T07:23:17.077Z,101176.59
2023-03-29T07:25:47.270Z,101180.00
2023-03-29T07:28:15.202Z,101162.88
2023-03-29T07:30:43.392Z,101159.09
2023-03-29T07:33:17.175Z,101175.34
2023-03-29T07:35:55.283Z,101176.22
2023-03-29T07:38:23.478Z,101176.94
2023-03-29T07:41:07.072Z,101168.56
2023-03-29T07:43:46.738Z,101170.28
2023-03-29T07:46:17.072Z,101173.25
2023-03-29T07:48:45.101Z,101172.81
2023-03-29T07:51:16.571Z,101173.47
2023-03-29T07:53:54.718Z,101176.09
2023-03-29T07:56:44.447Z,101184.91
2023-03-29T07:59:17.564Z,101188.41
2023-03-29T08:01:50.328Z,101177.41
2023-03-29T08:04:33.642Z,101180.03
2023-03-29T08:07:19.282Z,101174.34
2023-03-29T08:10:09.046Z,101168.78
2023-03-29T08:12:56.958Z,101175.13
2023-03-29T08:15:47.331Z,101172.38
2023-03-29T08:18:41.290Z,101175.00
2023-03-29T08:21:09.406Z,101178.41
2023-03-29T08:23:37.292Z,101180.13
2023-03-29T08:26:22.146Z,101176.41
2023-03-29T08:28:52.779Z,101177.97
2023-03-29T08:31:22.624Z,101185.16
2023-03-29T08:33:50.441Z,101176.75
2023-03-29T08:36:37.010Z,101177.41
2023-03-29T08:39:12.297Z,101183.53
2023-03-29T08:41:58.343Z,101180.34
2023-03-29T08:44:44.160Z,101182.72
2023-03-29T08:47:21.948Z,101167.19
2023-03-29T08:49:54.528Z,101171.41
2023-03-29T08:52:35.573Z,101166.50
2023-03-29T08:55:27.873Z,101160.81
2023-03-29T08:58:17.977Z,101161.56
2023-03-29T09:00:52.029Z,101157.56
2023-03-29T09:03:23.584Z,101154.47
2023-03-29T09:05:59.470Z,101152.41
2023-03-29T09:08:28.563Z,101163.31
2023-03-29T09:11:12.486Z,101167.22
2023-03-29T09:13:51.027Z,101156.16
2023-03-29T09:16:30.133Z,101159.56
2023-03-29T09:19:08.081Z,101163.78
2023-03-29T09:21:46.514Z,101169.03
2023-03-29T09:24:39.398Z,101167.16
2023-03-29T09:27:21.734Z,101160.63
2023-03-29T09:30:17.228Z,101161.34
2023-03-29T09:33:01.809Z,101157.41
2023-03-29T09:35:45.979Z,101159.06
2023-03-29T09:38:17.543Z,101161.44
2023-03-29T09:40:48.453Z,101160.22
2023-03-29T09:43:31.745Z,101154.41
2023-03-29T09:46:05.262Z,101160.50
2023-03-29T09:48:40.171Z,101150.22
2023-03-29T09:51:09.968Z,101148.03
2023-03-29T09:53:39.878Z,101151.25
2023-03-29T09:56:30.609Z,101150.03
2023-03-29T09:59:20.223Z,101149.69
2023-03-29T10:01:48.390Z,101148.22
2023-03-29T10:04:18.727Z,101155.81
2023-03-29T10:06:53.845Z,101152.75
2023-03-29T10:09:25.239Z,101143.19
2023-03-29T10:12:03.232Z,101132.78
2023-03-29T10:14:36.931Z,101131.47
2023-03-29T10:17:12.358Z,101129.34
2023-03-29T10:19:49.907Z,101136.06
2023-03-29T10:22:21.904Z,101137.56
2023-03-29T10:24:52.271Z,101131.00
2023-03-29T10:27:23.706Z,101122.19
2023-03-29T10:29:52.935Z,101119.06
2023-03-29T10:32:29.457Z,101124.91
2023-03-29T10:35:03.947Z,101118.22
2023-03-29T10:37:32.436Z,101097.94
2023-03-29T10:40:00.283Z,101105.66
2023-03-29T10:42:29.715Z,101112.38
2023-03-29T10:44:59.663Z,101119.31
2023-03-29T10:47:34.361Z,101111.50
2023-03-29T10:50:08.019Z,101111.13
2023-03-29T10:52:36.164Z,101110.88
2023-03-29T10:55:04.057Z,101109.38
2023-03-29T10:57:38.529Z,101117.69
2023-03-29T11:00:18.402Z,101111.44
2023-03-29T11:03:08.751Z,101097.00
2023-03-29T11:05:43.806Z,101109.69
2023-03-29T11:08:30.400Z,101093.94
2023-03-29T11:11:11.510Z,101094.66
2023-03-29T11:13:49.307Z,101096.94
2023-03-29T11:16:28.583Z,101087.53
2023-03-29T11:19:17.317Z,101100.88
2023-03-29T11:21:54.667Z,101099.69
2023-03-29T11:24:39.660Z,101100.09
2023-03-29T11:27:20.665Z,101089.91
2023-03-29T11:30:02.706Z,101093.31
2023-03-29T11:32:37.205Z,101091.75
2023-03-29T11:35:19.277Z,101090.63
2023-03-29T11:37:56.150Z,101087.03
2023-03-29T11:40:42.013Z,101079.13
2023-03-29T11:43:15.482Z,101074.22
2023-03-29T11:45:47.310Z,101067.28
2023-03-29T11:48:22.242Z,101069.91
2023-03-29T11:50:54.991Z,101066.75
2023-03-29T11:53:27.979Z,101054.59
2023-03-29T11:55:59.407Z,101052.59
2023-03-29T11:58:34.518Z,101053.19
2023-03-29T12:01:09.240Z,101054.91
2023-03-29T12:03:46.750Z,101051.00
2023-03-29T12:06:14.698Z,101052.88
2023-03-29T12:08:49.006Z,101056.09
2023-03-29T12:11:24.965Z,101047.75
2023-03-29T12:13:58.499Z,101051.19
2023-03-29T12:16:32.606Z,101043.81
2023-03-29T12:19:05.948Z,101040.06
2023-03-29T12:21:37.272Z,101032.56
2023-03-29T12:24:07.764Z,101038.91
2023-03-29T12:26:58.373Z,101033.84
2023-03-29T12:29:41.454Z,101027.34
2023-03-29T12:32:20.031Z,101022.53
2023-03-29T12:35:11.587Z,101013.47
2023-03-29T12:38:20.651Z,101022.13
2023-03-29T12:41:16.904Z,101022.72
2023-03-29T12:44:04.663Z,101023.47
2023-03-29T12:46:54.619Z,101010.16
2023-03-29T12:49:29.274Z,101027.03
2023-03-29T12:52:00.139Z,101014.91
2023-03-29T12:54:31.741Z,101018.25
2023-03-29T12:57:03.514Z,101024.16
2023-03-29T12:59:39.705Z,101018.38
2023-03-29T13:02:34.853Z,101016.19
2023-03-29T13:05:04.924Z,101012.00
2023-03-29T13:07:46.315Z,101002.13
2023-03-29T13:10:38.123Z,101007.31
2023-03-29T13:13:18.739Z,101002.09
2023-03-29T13:15:47.322Z,100989.94
2023-03-29T13:18:39.139Z,100992.25
2023-03-29T13:21:16.961Z,100998.88
2023-03-29T13:23:57.241Z,100995.66
2023-03-29T13:26:36.794Z,100997.00
2023-03-29T13:29:29.979Z,100983.81
2023-03-29T13:32:03.116Z,100977.19
2023-03-29T13:34:42.140Z,100984.53
2023-03-29T13:37:23.970Z,100983.75
2023-03-29T13:39:54.044Z,100980.00
2023-03-29T13:42:26.265Z,100976.06
2023-03-29T13:45:12.081Z,100976.91
2023-03-29T13:47:54.857Z,100969.38
2023-03-29T13:50:38.234Z,100973.72
2023-03-29T13:53:14.051Z,100963.44
2023-03-29T13:55:48.282Z,100943.16
2023-03-29T13:58:27.485Z,100947.63
2023-03-29T14:01:03.406Z,100946.47
2023-03-29T14:03:41.070Z,100936.19
2023-03-29T14:06:13.710Z,100936.03
2023-03-29T14:08:43.700Z,100919.53
2023-03-29T14:11:22.994Z,100930.06
2023-03-29T14:13:54.535Z,100922.66
2023-03-29T14:16:28.142Z,100920.63
2023-03-29T14:18:59.906Z,100907.59
2023-03-29T14:21:27.886Z,100904.66
2023-03-29T14:23:58.594Z,100906.25
2023-03-29T14:26:32.578Z,100904.06
2023-03-29T14:29:02.237Z,100905.94
2023-03-29T14:31:35.439Z,100900.97
2023-03-29T14:34:05.980Z,100897.34
2023-03-29T14:36:34.894Z,100893.56
2023-03-29T14:39:05.589Z,100890.69
2023-03-29T14:41:35.566Z,100899.94
2023-03-29T14:44:05.840Z,100897.91
2023-03-29T14:46:36.518Z,100894.16
2023-03-29T14:49:06.264Z,100899.66
2023-03-29T14:51:34.611Z,100893.13
2023-03-29T14:54:05.599Z,100894.00
2023-03-29T14:56:34.688Z,100882.13
2023-03-29T14:59:04.545Z,100880.22
2023-03-29T15:01:33.163Z,100873.00
2023-03-29T15:04:07.226Z,100879.91
2023-03-29T15:06:40.220Z,100868.88
2023-03-29T15:09:15.092Z,100874.38
2023-03-29T15:11:43.005Z,100868.88
2023-03-29T15:14:17.562Z,100861.34
2023-03-29T15:16:48.262Z,100858.59
2023-03-29T15:19:19.551Z,100853.94
2023-03-29T15:21:49.676Z,100840.91
2023-03-29T15:24:23.233Z,100843.47
2023-03-29T15:27:03.514Z,100848.97
2023-03-29T15:29:41.867Z,100847.09
2023-03-29T15:32:11.563Z,100838.16
2023-03-29T15:34:41.145Z,100834.19
2023-03-29T15:37:13.643Z,100824.03
2023-03-29T15:39:44.950Z,100827.13
2023-03-29T15:42:12.830Z,100819.75
2023-03-29T15:44:41.220Z,100815.94
2023-03-29T15:47:10.778Z,100806.66
2023-03-29T15:49:40.652Z,100804.78
2023-03-29T15:52:08.653Z,100798.75
2023-03-29T15:54:37.164Z,100784.13
2023-03-29T15:57:07.576Z,100778.44
2023-03-29T15:59:36.412Z,100779.47
2023-03-29T16:02:05.584Z,100772.09
2023-03-29T16:04:33.496Z,100773.09
2023-03-29T16:07:03.184Z,100772.09
2023-03-29T16:09:31.354Z,100771.22
2023-03-29T16:12:00.348Z,100762.09
2023-03-29T16:14:30.502Z,100759.19
2023-03-29T16:16:59.317Z,100755.72
2023-03-29T16:19:28.505Z,100756.44
2023-03-29T16:21:57.667Z,100749.88
2023-03-29T16:24:28.571Z,100743.53
2023-03-29T16:26:57.542Z,100743.53
2023-03-29T16:29:25.709Z,100735.44
2023-03-29T16:31:53.709Z,100736.28
2023-03-29T16:34:22.877Z,100732.53
2023-03-29T16:36:52.958Z,100724.06
2023-03-29T16:39:21.459Z,100718.56
2023-03-29T16:41:51.024Z,100720.16
2023-03-29T16:44:23.887Z,100714.63
2023-03-29T16:46:53.744Z,100723.91
2023-03-29T16:49:22.375Z,100722.03
2023-03-29T16:51:50.211Z,100721.00
2023-03-29T16:54:18.889Z,100714.63
2023-03-29T16:56:46.964Z,100703.63
2023-03-29T16:59:16.546Z,100712.59
2023-03-29T17:01:44.619Z,100709.13
2023-03-29T17:04:12.652Z,100704.50
2023-03-29T17:06:41.917Z,100707.25
2023-03-29T17:09:09.896Z,100701.75
2023-03-29T17:11:37.798Z,100706.22
2023-03-29T17:14:05.695Z,100700.72
2023-03-29T17:16:35.026Z,100689.56
2023-03-29T17:19:02.912Z,100693.31
2023-03-29T17:21:30.804Z,100697.09
2023-03-29T17:23:58.661Z,100702.44
2023-03-29T17:26:26.824Z,100700.56
2023-03-29T17:28:54.954Z,100703.31
2023-03-29T17:31:23.070Z,100705.19
2023-03-29T17:33:52.501Z,100698.47
2023-03-29T17:36:24.222Z,100688.69
2023-03-29T17:38:52.582Z,100689.88
2023-03-29T17:41:21.266Z,100689.56
2023-03-29T17:43:51.176Z,100683.19
2023-03-29T17:46:22.774Z,100685.94
2023-03-29T17:48:52.417Z,100680.44
2023-03-29T17:51:21.096Z,100679.41
2023-03-29T17:53:49.131Z,100673.91
2023-03-29T17:56:17.045Z,100674.91
2023-03-29T17:58:44.931Z,100673.91
2023-03-29T18:01:14.068Z,100671.16
2023-03-29T18:03:42.830Z,100664.78
2023-03-29T18:06:12.195Z,100661.81
2023-03-29T18:08:40.572Z,100662.19
2023-03-29T18:11:09.843Z,100659.44
2023-03-29T18:13:37.989Z,100652.19
2023-03-29T18:16:07.004Z,100656.84
2023-03-29T18:18:36.154Z,100662.34
2023-03-29T18:21:04.139Z,100664.22
2023-03-29T18:23:33.845Z,100660.44
2023-03-29T18:26:02.888Z,100656.13
2023-03-29T18:28:31.197Z,100649.94
2023-03-29T18:30:59.284Z,100649.06
2023-03-29T18:33:27.924Z,100649.06
2023-03-29T18:35:55.849Z,100650.09
2023-03-29T18:38:23.881Z,100661.25
2023-03-29T18:40:53.220Z,100661.09
2023-03-29T18:43:21.162Z,100666.94
2023-03-29T18:45:49.072Z,100667.78
2023-03-29T18:48:17.212Z,100664.19
2023-03-29T18:50:46.447Z,100652.31
2023-03-29T18:53:15.060Z,100656.94
2023-03-29T18:55:43.658Z,100660.56
2023-03-29T18:58:14.113Z,100663.47
2023-03-29T19:00:43.114Z,100655.22
2023-03-29T19:03:11.211Z,100649.19
2023-03-29T19:05:40.205Z,100654.53
2023-03-29T19:08:09.088Z,100652.81
2023-03-29T19:10:37.624Z,100638.34
2023-03-29T19:13:06.129Z,100629.91
2023-03-29T19:15:35.534Z,100631.81
2023-03-29T19:18:03.538Z,100627.47
2023-03-29T19:20:31.480Z,100627.63
2023-03-29T19:22:59.338Z,100622.13
2023-03-29T19:25:27.265Z,100616.78
2023-03-29T19:27:55.510Z,100625.91
2023-03-29T19:30:25.736Z,100615.97
2023-03-29T19:32:55.138Z,100613.88
2023-03-29T19:35:23.096Z,100615.97
2023-03-29T19:37:51.227Z,100615.09
2023-03-29T19:40:20.068Z,100599.59
2023-03-29T19:42:48.606Z,100598.75
2023-03-29T19:45:16.752Z,100607.00
2023-03-29T19:47:47.658Z,100591.50
2023-03-29T19:50:17.201Z,100593.22
2023-03-29T19:52:45.077Z,100599.06
2023-03-29T19:55:13.555Z,100588.91
2023-03-29T19:57:42.499Z,100588.03
2023-03-29T20:00:11.591Z,100587.19
2023-03-29T20:02:42.794Z,100579.28
2023-03-29T20:05:12.360Z,100581.84
2023-03-29T20:07:41.613Z,100580.81
2023-03-29T20:10:11.133Z,100574.63
2023-03-29T20:12:39.762Z,100574.63
2023-03-29T20:15:08.748Z,100570.81
2023-03-29T20:17:40.729Z,100572.91
2023-03-29T20:20:11.955Z,100562.06
2023-03-29T20:22:45.294Z,100558.13
2023-03-29T20:25:13.227Z,100560.16
2023-03-29T20:27:42.759Z,100555.69
2023-03-29T20:30:12.665Z,100560.16
2023-03-29T20:32:41.825Z,100572.19
2023-03-29T20:35:11.001Z,100548.47
2023-03-29T20:37:38.959Z,100553.09
2023-03-29T20:40:11.337Z,100551.22
2023-03-29T20:42:39.284Z,100540.72
2023-03-29T20:45:08.814Z,100538.47
2023-03-29T20:47:42.382Z,100538.63
2023-03-29T20:50:11.558Z,100538.81
2023-03-29T20:52:39.485Z,100535.38
2023-03-29T20:55:09.020Z,100525.22
2023-03-29T20:57:37.132Z,100517.28
2023-03-29T21:00:12.230Z,100519.19
2023-03-29T21:02:40.545Z,100514.84
2023-03-29T21:05:09.661Z,100507.66
2023-03-29T21:07:37.600Z,100503.34
2023-03-29T21:10:06.868Z,100503.34
2023-03-29T21:12:36.225Z,100498.84
2023-03-29T21:15:04.101Z,100506.41
2023-03-29T21:17:32.231Z,100504.00
2023-03-29T21:20:00.195Z,100499.38
2023-03-29T21:22:28.401Z,100490.41
2023-03-29T21:24:56.251Z,100487.81
2023-03-29T21:27:24.357Z,100471.47
2023-03-29T21:29:53.558Z,100470.59
2023-03-29T21:32:21.428Z,100470.97
2023-03-29T21:34:49.301Z,100471.28
2023-03-29T21:37:17.218Z,100471.59
2023-03-29T21:39:45.069Z,100459.91
2023-03-29T21:42:12.987Z,100449.94
2023-03-29T21:44:40.816Z,100457.59
2023-03-29T21:47:10.248Z,100453.13
2023-03-29T21:49:39.583Z,100446.09
2023-03-29T21:52:07.948Z,100439.88
2023-03-29T21:54:36.081Z,100431.78
2023-03-29T21:57:03.979Z,100442.09
2023-03-29T21:59:31.806Z,100452.22
2023-03-29T22:01:59.781Z,100455.13
2023-03-29T22:04:36.453Z,100454.28
2023-03-29T22:07:08.489Z,100452.56
2023-03-29T22:09:36.413Z,100461.13
2023-03-29T22:12:04.842Z,100461.84
2023-03-29T22:14:35.026Z,100465.59
2023-03-29T22:17:05.630Z,100458.38
2023-03-29T22:19:39.027Z,100452.72
2023-03-29T22:22:13.519Z,100441.88
2023-03-29T22:24:42.343Z,100447.38
2023-03-29T22:27:11.063Z,100452.88
2023-03-29T22:29:38.960Z,100449.25
2023-03-29T22:32:06.966Z,100444.63
2023-03-29T22:34:36.631Z,100433.63
2023-03-29T22:37:04.658Z,100429.31
2023-03-29T22:39:35.392Z,100431.19
2023-03-29T22:42:03.445Z,100431.19
2023-03-29T22:44:31.409Z,100429.66
2023-03-29T22:46:59.455Z,100430.69
2023-03-29T22:49:27.283Z,100426.22
2023-03-29T22:51:56.487Z,100424.31
2023-03-29T22:54:24.345Z,100419.16
2023-03-29T22:56:52.276Z,100415.53
2023-03-29T22:59:20.095Z,100412.78
2023-03-29T23:01:48.229Z,100413.81
2023-03-29T23:04:16.246Z,100418.47
2023-03-29T23:06:44.198Z,100408.50
2023-03-29T23:09:15.998Z,100415.72
2023-03-29T23:11:44.432Z,100413.28
2023-03-29T23:14:12.246Z,100405.91
2023-03-29T23:16:40.118Z,100402.28
2023-03-29T23:19:07.969Z,100401.59
2023-03-29T23:21:37.061Z,100404.50
2023-03-29T23:24:06.454Z,100403.81
2023-03-29T23:26:35.735Z,100395.38
2023-03-29T23:29:04.122Z,100399.34
2023-03-29T23:31:33.729Z,100399.50
2023-03-29T23:34:03.157Z,100392.28
2023-03-29T23:36:31.494Z,100394.31
2023-03-29T23:38:59.791Z,100393.59
2023-03-29T23:41:30.478Z,100392.78
2023-03-29T23:43:59.890Z,100392.59
2023-03-29T23:46:27.832Z,100392.94
2023-03-29T23:48:55.727Z,100386.56
2023-03-29T23:51:28.040Z,100391.19
2023-03-29T23:53:56.803Z,100375.03
2023-03-29T23:56:24.910Z,100375.03
2023-03-29T23:58:52.875Z,100379.50
